Time;durP1;ratioP1;P1;durP2;ratioP2;P2;SDS_P1;SDS_P2;PMS_P1;PMS_P2;Temp;Humidity;BMP_temperature;BMP_pressure;BME280_temperature;BME280_humidity;BME280_pressure;Samples;Min_cycle;Max_cycle;Signal;HPM_P1;HPM_P2
2023/07/19 00:01:28;;;;;;;8.85;2.15;;;22.80;76.70;;;;;;4133032;28;20042;-51
2023/07/19 00:03:31;;;;;;;8.20;2.25;;;22.70;76.60;;;;;;4132125;28;20083;-51
2023/07/19 00:05:33;;;;;;;4.00;1.95;;;22.70;76.70;;;;;;4133078;28;20105;-51
2023/07/19 00:07:35;;;;;;;8.35;2.08;;;22.70;76.40;;;;;;4132794;28;20050;-51
2023/07/19 00:09:37;;;;;;;6.20;2.28;;;22.70;76.60;;;;;;4133106;28;20054;-51
2023/07/19 00:11:39;;;;;;;6.10;1.90;;;22.60;76.40;;;;;;4132861;28;20187;-50
2023/07/19 00:13:41;;;;;;;4.82;2.20;;;22.60;76.50;;;;;;4132103;28;20595;-50
2023/07/19 00:15:44;;;;;;;8.40;2.42;;;22.50;76.50;;;;;;4147428;28;20084;-51
2023/07/19 00:17:47;;;;;;;7.97;2.20;;;22.40;76.70;;;;;;4128416;28;20129;-50
2023/07/19 00:19:49;;;;;;;4.90;2.13;;;22.40;76.70;;;;;;4133094;28;20046;-50
2023/07/19 00:21:51;;;;;;;5.50;2.22;;;22.50;76.60;;;;;;4132014;28;20089;-50
2023/07/19 00:23:53;;;;;;;7.80;1.90;;;22.50;76.80;;;;;;4131322;28;20077;-50
2023/07/19 00:25:55;;;;;;;5.50;2.13;;;22.40;76.80;;;;;;4132014;28;20046;-50
2023/07/19 00:27:57;;;;;;;5.78;1.88;;;22.30;76.90;;;;;;4132588;28;20130;-51
2023/07/19 00:30:00;;;;;;;7.93;2.30;;;22.30;76.90;;;;;;4115598;28;20043;-52
2023/07/19 00:32:02;;;;;;;7.55;2.45;;;22.30;77.00;;;;;;4132511;28;20043;-53
2023/07/19 00:34:05;;;;;;;5.35;1.90;;;22.20;77.20;;;;;;4131853;28;20120;-52
2023/07/19 00:36:08;;;;;;;5.90;1.85;;;22.20;77.40;;;;;;4132389;28;20815;-53
2023/07/19 00:38:10;;;;;;;9.75;2.05;;;22.10;77.50;;;;;;4132464;28;20057;-52
2023/07/19 00:40:12;;;;;;;7.78;2.20;;;22.20;78.20;;;;;;4132720;28;20105;-53
2023/07/19 00:42:14;;;;;;;5.93;2.10;;;22.10;77.70;;;;;;4132384;28;20367;-54
2023/07/19 00:44:16;;;;;;;7.00;2.33;;;22.10;77.60;;;;;;4131662;28;20077;-53
2023/07/19 00:46:20;;;;;;;5.65;2.40;;;22.20;77.70;;;;;;4132461;28;20046;-53
2023/07/19 00:48:23;;;;;;;5.25;2.20;;;22.10;77.70;;;;;;4132291;28;20101;-52
2023/07/19 00:50:26;;;;;;;6.05;2.10;;;22.10;78.00;;;;;;4132156;28;20078;-52
2023/07/19 00:52:28;;;;;;;10.52;2.33;;;22.00;77.80;;;;;;4132287;28;20042;-53
2023/07/19 00:54:31;;;;;;;5.45;1.98;;;22.00;77.90;;;;;;4131447;28;20058;-53
2023/07/19 00:56:33;;;;;;;7.55;1.60;;;22.00;77.70;;;;;;4132410;28;20129;-52
2023/07/19 00:58:35;;;;;;;3.95;1.75;;;22.10;77.90;;;;;;4132024;28;20058;-53
2023/07/19 01:00:38;;;;;;;6.82;2.20;;;22.00;77.90;;;;;;4132415;28;20129;-53
2023/07/19 01:02:40;;;;;;;7.85;1.88;;;22.00;77.80;;;;;;4131896;28;20048;-53
2023/07/19 01:04:44;;;;;;;6.13;2.00;;;22.00;78.10;;;;;;4131496;28;20089;-53
2023/07/19 01:06:48;;;;;;;7.63;1.75;;;22.00;77.90;;;;;;4132243;28;20046;-53
2023/07/19 01:08:50;;;;;;;4.40;1.80;;;21.90;77.90;;;;;;4131979;28;20103;-53
2023/07/19 01:10:53;;;;;;;9.85;2.20;;;21.90;78.00;;;;;;4132235;28;20462;-53
2023/07/19 01:13:05;;;;;;;11.43;2.20;;;21.90;78.10;;;;;;4131000;28;20058;-57
2023/07/19 01:15:09;;;;;;;6.93;2.08;;;21.90;77.90;;;;;;4130720;28;20042;-50
2023/07/19 01:17:11;;;;;;;7.72;2.10;;;22.00;77.80;;;;;;4132202;28;20046;-50
2023/07/19 01:19:15;;;;;;;7.40;2.38;;;21.90;77.70;;;;;;4131681;28;20493;-50
2023/07/19 01:21:17;;;;;;;5.85;1.95;;;21.90;77.60;;;;;;4131958;28;20421;-51
2023/07/19 01:23:27;;;;;;;12.80;2.35;;;21.90;77.70;;;;;;4130956;28;20130;-50
2023/07/19 01:25:30;;;;;;;12.02;2.67;;;21.90;78.00;;;;;;4131649;28;20074;-52
2023/07/19 01:27:32;;;;;;;9.73;2.00;;;21.80;78.10;;;;;;4131964;28;20065;-53
2023/07/19 01:29:34;;;;;;;12.57;1.98;;;21.70;78.20;;;;;;4114526;28;20105;-52
2023/07/19 01:31:37;;;;;;;10.73;1.83;;;21.70;78.30;;;;;;4131967;28;20046;-53
2023/07/19 01:33:39;;;;;;;8.35;2.70;;;21.70;78.00;;;;;;4130161;28;20493;-53
2023/07/19 01:35:41;;;;;;;9.65;2.35;;;21.80;78.00;;;;;;4131718;28;20486;-53
2023/07/19 01:37:43;;;;;;;9.45;1.83;;;21.80;78.20;;;;;;4131848;28;20133;-52
2023/07/19 01:39:46;;;;;;;11.75;2.10;;;21.80;77.90;;;;;;4131417;28;20121;-53
2023/07/19 01:41:48;;;;;;;8.45;2.17;;;21.80;78.00;;;;;;4131595;28;20093;-52
2023/07/19 01:43:51;;;;;;;5.32;2.10;;;21.80;78.20;;;;;;4130782;28;20046;-53
2023/07/19 01:45:53;;;;;;;7.82;2.25;;;21.70;78.20;;;;;;4131786;28;20130;-53
2023/07/19 01:47:55;;;;;;;12.25;2.58;;;21.70;78.20;;;;;;4131222;28;20391;-53
2023/07/19 01:49:58;;;;;;;7.15;1.90;;;21.60;78.40;;;;;;4131310;28;20042;-53
2023/07/19 01:52:00;;;;;;;7.47;2.10;;;21.60;78.60;;;;;;4131751;28;20049;-53
2023/07/19 01:54:02;;;;;;;6.68;1.90;;;21.60;78.60;;;;;;4130604;28;20077;-53
2023/07/19 01:56:05;;;;;;;7.50;2.40;;;21.60;78.90;;;;;;4131486;28;20070;-53
2023/07/19 01:58:08;;;;;;;6.35;2.22;;;21.60;79.00;;;;;;4131593;28;20049;-53
2023/07/19 02:00:11;;;;;;;3.28;2.20;;;21.60;79.30;;;;;;4131102;28;20480;-53
2023/07/19 02:02:13;;;;;;;6.75;1.88;;;21.50;79.50;;;;;;4131424;28;20413;-53
2023/07/19 02:04:15;;;;;;;6.05;2.05;;;21.50;79.70;;;;;;4130257;28;20076;-52
2023/07/19 02:06:17;;;;;;;5.25;2.05;;;21.50;79.80;;;;;;4118221;28;20114;-53
2023/07/19 02:08:20;;;;;;;3.63;1.67;;;21.50;80.60;;;;;;4115403;28;20122;-53
2023/07/19 02:10:23;;;;;;;8.02;2.10;;;21.40;80.10;;;;;;4123585;28;20042;-61
2023/07/19 02:12:26;;;;;;;5.93;1.90;;;21.40;80.10;;;;;;4132063;28;20393;-52
2023/07/19 02:14:28;;;;;;;5.00;2.00;;;21.40;80.10;;;;;;4130191;28;20482;-51
2023/07/19 02:16:31;;;;;;;4.22;1.90;;;21.40;80.00;;;;;;4131147;28;20081;-50
2023/07/19 02:18:33;;;;;;;6.47;2.15;;;21.40;79.80;;;;;;4131160;28;20433;-52
2023/07/19 02:20:35;;;;;;;7.68;1.70;;;21.40;79.90;;;;;;4130834;28;20141;-53
2023/07/19 02:22:39;;;;;;;4.00;1.90;;;21.40;79.80;;;;;;4131206;28;20074;-53
2023/07/19 02:24:41;;;;;;;3.50;1.77;;;21.40;80.00;;;;;;4130439;28;20053;-51
2023/07/19 02:26:43;;;;;;;6.65;2.15;;;21.40;80.00;;;;;;4130862;28;20441;-53
2023/07/19 02:28:46;;;;;;;5.78;2.10;;;21.40;79.80;;;;;;4131253;28;20149;-52
2023/07/19 02:30:49;;;;;;;5.15;1.80;;;21.40;79.90;;;;;;4131107;28;20043;-53
2023/07/19 02:32:51;;;;;;;4.88;2.08;;;21.30;80.10;;;;;;4120061;28;20046;-53
2023/07/19 02:34:53;;;;;;;6.35;1.90;;;21.30;80.20;;;;;;4130217;28;20048;-52
2023/07/19 02:36:57;;;;;;;6.68;2.22;;;21.30;80.20;;;;;;4130877;28;20478;-52
2023/07/19 02:38:59;;;;;;;3.72;2.08;;;21.30;80.30;;;;;;4131239;28;20125;-53
2023/07/19 02:41:01;;;;;;;7.22;2.20;;;21.30;80.50;;;;;;4130925;28;20042;-53
2023/07/19 02:43:03;;;;;;;5.70;2.40;;;21.20;80.70;;;;;;4130437;28;20196;-52
2023/07/19 02:45:08;;;;;;;5.05;1.70;;;21.20;80.70;;;;;;4131064;28;20116;-53
2023/07/19 02:47:12;;;;;;;3.83;1.67;;;21.20;80.90;;;;;;4133567;28;20038;-53
2023/07/19 02:49:14;;;;;;;8.32;2.35;;;21.20;81.00;;;;;;4134430;28;20050;-53
2023/07/19 02:51:16;;;;;;;7.32;2.30;;;21.10;81.10;;;;;;4134282;28;20049;-53
2023/07/19 02:53:19;;;;;;;6.50;2.20;;;21.10;81.70;;;;;;4133570;28;20038;-53
2023/07/19 02:55:22;;;;;;;6.07;2.30;;;21.00;82.90;;;;;;4132887;28;20510;-53
2023/07/19 02:57:24;;;;;;;6.15;1.95;;;20.90;82.60;;;;;;4133942;28;20057;-52
2023/07/19 02:59:26;;;;;;;7.65;2.13;;;20.90;82.90;;;;;;4134033;28;20116;-51
2023/07/19 03:01:30;;;;;;;9.38;2.08;;;20.90;83.10;;;;;;4133564;28;20053;-51
2023/07/19 03:03:32;;;;;;;5.97;2.10;;;20.80;83.40;;;;;;4133392;28;20046;-50
2023/07/19 03:05:34;;;;;;;14.55;2.63;;;20.80;84.30;;;;;;4134038;28;20054;-50
2023/07/19 03:07:38;;;;;;;10.07;2.33;;;20.70;83.90;;;;;;4134010;28;20047;-50
2023/07/19 03:09:40;;;;;;;6.03;2.30;;;20.80;84.10;;;;;;4134291;28;20089;-50
2023/07/19 03:11:42;;;;;;;7.63;2.75;;;20.70;84.10;;;;;;4134062;28;20211;-51
2023/07/19 03:13:44;;;;;;;7.18;2.05;;;20.70;84.10;;;;;;4132735;28;20137;-52
2023/07/19 03:15:46;;;;;;;12.10;2.05;;;20.70;84.30;;;;;;4133614;28;20047;-50
2023/07/19 03:17:50;;;;;;;8.30;2.25;;;20.70;84.20;;;;;;4133665;28;20035;-51
2023/07/19 03:19:52;;;;;;;7.32;2.38;;;20.70;84.20;;;;;;4132820;28;20496;-50
2023/07/19 03:21:54;;;;;;;6.50;2.08;;;20.70;84.40;;;;;;4134030;28;20138;-50
2023/07/19 03:23:56;;;;;;;6.25;2.13;;;20.60;84.70;;;;;;4131890;28;20080;-51
2023/07/19 03:25:58;;;;;;;13.27;2.75;;;20.50;84.90;;;;;;4134154;28;20050;-50
2023/07/19 03:28:01;;;;;;;8.23;2.60;;;20.30;85.50;;;;;;4132353;28;20477;-50
2023/07/19 03:30:06;;;;;;;8.82;1.90;;;20.30;85.20;;;;;;4133629;28;20085;-59
2023/07/19 03:32:09;;;;;;;6.50;2.22;;;20.20;85.40;;;;;;4134221;28;20070;-50
2023/07/19 03:34:12;;;;;;;10.73;2.55;;;20.30;85.40;;;;;;4132584;28;20069;-51
2023/07/19 03:36:14;;;;;;;4.82;2.03;;;20.20;85.30;;;;;;4117678;28;20133;-51
2023/07/19 03:38:17;;;;;;;10.30;2.42;;;20.10;84.70;;;;;;4124639;28;20038;-51
2023/07/19 03:40:20;;;;;;;8.23;2.20;;;20.10;84.50;;;;;;4133660;28;20057;-51
2023/07/19 03:42:22;;;;;;;12.13;2.45;;;20.10;84.70;;;;;;4133659;28;20456;-51
2023/07/19 03:44:25;;;;;;;4.85;1.83;;;20.10;84.40;;;;;;4115064;28;20213;-50
2023/07/19 03:46:27;;;;;;;3.83;2.10;;;20.10;84.10;;;;;;4132850;28;20049;-51
2023/07/19 03:48:29;;;;;;;6.63;2.38;;;20.10;84.20;;;;;;4133365;28;20122;-53
2023/07/19 03:50:32;;;;;;;5.78;2.05;;;20.00;84.00;;;;;;4133406;28;20046;-53
2023/07/19 03:52:34;;;;;;;4.90;2.00;;;20.00;83.90;;;;;;4133834;28;20047;-53
2023/07/19 03:54:36;;;;;;;8.13;2.58;;;20.00;83.90;;;;;;4132242;28;20061;-52
2023/07/19 03:56:38;;;;;;;6.47;1.73;;;19.90;84.00;;;;;;4133341;28;20050;-52
2023/07/19 03:58:43;;;;;;;8.43;2.10;;;19.90;83.10;;;;;;4132893;28;20042;-53
2023/07/19 04:00:45;;;;;;;6.30;1.80;;;19.90;82.70;;;;;;4133225;28;20057;-59
2023/07/19 04:02:48;;;;;;;13.00;2.47;;;19.90;82.90;;;;;;4133231;28;20042;-53
2023/07/19 04:04:50;;;;;;;3.70;1.45;;;19.90;82.10;;;;;;4132285;28;20046;-53
2023/07/19 04:06:54;;;;;;;6.10;1.90;;;19.90;82.00;;;;;;4133271;28;20126;-52
2023/07/19 04:08:56;;;;;;;6.55;2.38;;;19.90;81.50;;;;;;4133058;28;20042;-53
2023/07/19 04:10:58;;;;;;;5.63;1.73;;;19.90;81.60;;;;;;4133186;28;20042;-53
2023/07/19 04:13:00;;;;;;;4.95;1.83;;;19.90;81.40;;;;;;4132576;28;20046;-53
2023/07/19 04:15:03;;;;;;;6.07;1.88;;;19.80;81.10;;;;;;4132053;28;20042;-53
2023/07/19 04:17:05;;;;;;;6.90;1.80;;;19.70;81.00;;;;;;4133258;28;20058;-51
2023/07/19 04:19:07;;;;;;;4.25;1.75;;;19.80;81.10;;;;;;4133151;28;20060;-51
2023/07/19 04:21:09;;;;;;;5.95;1.77;;;19.70;81.50;;;;;;4132872;28;20121;-53
2023/07/19 04:23:13;;;;;;;3.95;1.50;;;19.70;81.70;;;;;;4132989;28;20057;-53
2023/07/19 04:25:15;;;;;;;4.97;1.75;;;19.60;82.10;;;;;;4131995;28;20121;-53
2023/07/19 04:27:17;;;;;;;4.32;1.60;;;19.60;82.50;;;;;;4132712;28;20400;-52
2023/07/19 04:29:22;;;;;;;5.45;2.20;;;19.50;82.90;;;;;;4132822;28;20490;-50
2023/07/19 04:31:24;;;;;;;;;;;19.50;82.50;;;;;;4133648;28;20047;-51
2023/07/19 04:33:26;;;;;;;6.85;1.58;;;19.50;83.10;;;;;;4132431;28;19965;-52
2023/07/19 04:35:28;;;;;;;8.85;1.77;;;19.40;83.50;;;;;;4132271;28;20117;-53
2023/07/19 04:37:30;;;;;;;6.50;1.70;;;19.40;83.70;;;;;;4132991;28;20042;-54
2023/07/19 04:39:34;;;;;;;3.45;1.70;;;19.40;83.50;;;;;;4115643;28;20055;-53
2023/07/19 04:41:36;;;;;;;7.03;1.77;;;19.50;83.80;;;;;;4132757;28;20047;-53
2023/07/19 04:43:38;;;;;;;8.80;1.80;;;19.40;83.50;;;;;;4131750;28;20078;-52
2023/07/19 04:45:41;;;;;;;10.43;2.05;;;19.20;84.30;;;;;;4132292;28;20487;-52
2023/07/19 04:47:44;;;;;;;8.45;2.20;;;19.20;84.90;;;;;;4132661;28;20383;-52
2023/07/19 04:49:46;;;;;;;7.63;1.70;;;19.20;84.40;;;;;;4132835;28;20054;-52
2023/07/19 04:51:48;;;;;;;6.45;1.50;;;19.20;84.60;;;;;;4132275;28;20089;-53
2023/07/19 04:53:50;;;;;;;7.32;1.70;;;19.20;84.60;;;;;;4115828;28;20050;-53
2023/07/19 04:55:54;;;;;;;8.18;2.03;;;19.20;84.70;;;;;;4123352;28;20093;-52
2023/07/19 04:57:56;;;;;;;5.80;1.67;;;19.30;84.40;;;;;;4132205;28;20078;-52
2023/07/19 04:59:58;;;;;;;4.47;1.45;;;19.40;84.10;;;;;;4132306;28;20054;-52
2023/07/19 05:02:00;;;;;;;4.80;1.55;;;19.40;84.00;;;;;;4132126;28;20401;-52
2023/07/19 05:04:02;;;;;;;5.90;1.30;;;19.40;83.80;;;;;;4131379;28;20080;-52
2023/07/19 05:06:04;;;;;;;7.03;1.85;;;19.40;84.10;;;;;;4131946;28;20070;-52
2023/07/19 05:08:07;;;;;;;7.20;1.90;;;19.30;83.70;;;;;;4132438;28;20047;-52
2023/07/19 05:10:09;;;;;;;5.88;1.85;;;19.20;84.10;;;;;;4132629;28;20114;-53
2023/07/19 05:12:13;;;;;;;5.65;2.03;;;19.10;84.40;;;;;;4131852;28;20133;-52
2023/07/19 05:14:15;;;;;;;6.93;1.75;;;19.10;84.80;;;;;;4131723;28;20066;-56
2023/07/19 05:16:17;;;;;;;9.00;1.70;;;19.10;84.80;;;;;;4133800;28;20069;-65
2023/07/19 05:18:19;;;;;;;6.10;1.85;;;19.20;84.40;;;;;;4127818;28;20592;-62
2023/07/19 05:20:21;;;;;;;5.97;1.30;;;19.20;84.30;;;;;;4133468;28;20062;-61
2023/07/19 05:22:23;;;;;;;4.25;1.70;;;19.20;84.40;;;;;;4133648;28;20069;-53
2023/07/19 05:24:26;;;;;;;6.10;1.60;;;19.10;84.90;;;;;;4132764;28;20262;-53
2023/07/19 05:26:28;;;;;;;11.57;1.77;;;19.10;85.20;;;;;;4132935;28;20041;-59
2023/07/19 05:28:31;;;;;;;9.63;2.10;;;19.20;84.90;;;;;;4133480;28;20050;-53
2023/07/19 05:30:33;;;;;;;10.98;2.00;;;19.10;84.90;;;;;;4132259;28;20058;-57
2023/07/19 05:32:35;;;;;;;10.60;1.85;;;19.20;85.00;;;;;;4133175;28;20069;-56
2023/07/19 05:34:37;;;;;;;10.20;2.72;;;19.30;85.00;;;;;;4132336;28;20128;-60
2023/07/19 05:36:40;;;;;;;6.70;2.10;;;19.30;85.00;;;;;;4133409;28;20124;-54
2023/07/19 05:38:42;;;;;;;7.05;2.28;;;19.40;85.00;;;;;;4133192;28;20046;-53
2023/07/19 05:40:44;;;;;;;4.80;1.60;;;19.40;84.90;;;;;;4133257;28;20474;-52
2023/07/19 05:42:46;;;;;;;2.75;1.70;;;19.50;84.60;;;;;;4115350;28;20101;-63
2023/07/19 05:44:49;;;;;;;9.77;2.03;;;19.50;84.70;;;;;;4131879;28;20442;-52
2023/07/19 05:46:52;;;;;;;4.30;1.65;;;19.40;84.70;;;;;;4133017;28;20046;-57
2023/07/19 05:48:54;;;;;;;6.78;1.80;;;19.40;84.70;;;;;;4131698;28;20046;-52
2023/07/19 05:50:56;;;;;;;5.65;1.67;;;19.40;84.70;;;;;;4131666;28;20046;-52
2023/07/19 05:52:58;;;;;;;5.75;1.88;;;19.40;84.60;;;;;;4131875;28;20420;-52
2023/07/19 05:55:00;;;;;;;6.72;1.92;;;19.40;84.60;;;;;;4130343;28;20077;-52
2023/07/19 05:57:07;;;;;;;5.32;1.67;;;19.40;84.80;;;;;;4131499;28;20050;-52
2023/07/19 05:59:09;;;;;;;7.90;1.80;;;19.40;84.90;;;;;;4131284;28;20417;-52
2023/07/19 06:01:17;;;;;;;6.85;1.90;;;19.50;84.60;;;;;;4131642;28;20046;-52
2023/07/19 06:03:20;;;;;;;5.38;1.65;;;19.40;84.10;;;;;;4131370;28;20046;-53
2023/07/19 06:05:23;;;;;;;7.35;1.88;;;19.50;84.70;;;;;;4130590;28;20553;-52
2023/07/19 06:07:25;;;;;;;6.97;1.67;;;19.40;85.20;;;;;;4131388;28;20046;-52
2023/07/19 06:09:27;;;;;;;3.85;1.50;;;19.40;86.10;;;;;;4129928;28;20049;-52
2023/07/19 06:11:29;;;;;;;4.05;1.85;;;19.40;86.00;;;;;;4131479;28;20050;-52
2023/07/19 06:13:32;;;;;;;3.80;1.85;;;19.50;86.00;;;;;;4131054;28;20053;-52
2023/07/19 06:15:34;;;;;;;5.07;1.58;;;19.60;86.60;;;;;;4130563;28;20125;-52
2023/07/19 06:17:38;;;;;;;6.40;1.75;;;19.40;87.40;;;;;;4131563;28;20560;-52
2023/07/19 06:19:40;;;;;;;6.70;1.92;;;19.50;87.30;;;;;;4130673;28;20085;-52
2023/07/19 06:21:42;;;;;;;2.78;1.13;;;19.60;87.70;;;;;;4130647;28;20053;-52
2023/07/19 06:23:44;;;;;;;3.83;1.30;;;19.60;87.60;;;;;;4129187;28;20061;-52
2023/07/19 06:25:47;;;;;;;3.67;1.50;;;19.70;87.90;;;;;;4113551;28;20059;-54
2023/07/19 06:27:49;;;;;;;6.93;2.03;;;19.70;88.50;;;;;;4131295;28;20391;-53
2023/07/19 06:29:52;;;;;;;10.25;1.52;;;19.70;88.80;;;;;;4131101;28;20042;-53
2023/07/19 06:31:54;;;;;;;8.93;1.50;;;19.60;89.10;;;;;;4131099;28;20104;-54
2023/07/19 06:33:57;;;;;;;7.65;1.83;;;19.70;89.00;;;;;;4129994;28;20046;-53
2023/07/19 06:35:59;;;;;;;5.95;2.42;;;19.80;88.70;;;;;;4130921;28;20074;-51
2023/07/19 06:38:01;;;;;;;4.43;1.92;;;19.90;88.70;;;;;;4131018;28;20042;-52
2023/07/19 06:40:05;;;;;;;5.15;1.75;;;19.90;88.70;;;;;;4130950;28;20078;-50
2023/07/19 06:42:08;;;;;;;4.13;1.85;;;19.90;89.30;;;;;;4131083;28;20046;-50
2023/07/19 06:44:11;;;;;;;9.45;1.38;;;20.00;89.30;;;;;;4130078;28;20137;-52
2023/07/19 06:46:13;;;;;;;6.70;1.60;;;20.00;89.10;;;;;;4130953;28;20050;-52
2023/07/19 06:48:15;;;;;;;5.68;1.60;;;20.10;89.10;;;;;;4131009;28;20046;-52
2023/07/19 06:50:19;;;;;;;9.50;1.42;;;20.10;89.40;;;;;;4130773;28;20040;-52
2023/07/19 06:52:21;;;;;;;5.63;1.63;;;20.10;89.00;;;;;;4130739;28;20050;-51
2023/07/19 06:54:23;;;;;;;4.63;1.40;;;20.20;88.40;;;;;;4130199;28;20046;-50
2023/07/19 06:56:25;;;;;;;6.50;1.30;;;20.30;88.00;;;;;;4130783;28;20446;-50
2023/07/19 06:58:27;;;;;;;6.57;1.60;;;20.40;87.90;;;;;;4130816;28;20046;-51
2023/07/19 07:00:30;;;;;;;6.85;1.65;;;20.50;87.80;;;;;;4129700;28;20042;-50
2023/07/19 07:02:32;;;;;;;8.43;1.90;;;20.60;87.80;;;;;;4129775;28;20042;-50
2023/07/19 07:04:34;;;;;;;6.45;1.73;;;20.60;87.30;;;;;;4129788;28;20108;-52
2023/07/19 07:06:37;;;;;;;5.82;1.42;;;20.70;88.10;;;;;;4130781;28;20513;-52
2023/07/19 07:08:39;;;;;;;5.00;1.80;;;20.80;87.20;;;;;;4130865;28;20157;-52
2023/07/19 07:10:44;;;;;;;4.28;1.63;;;21.00;87.40;;;;;;4130606;28;20169;-52
2023/07/19 07:12:46;;;;;;;6.43;2.03;;;21.00;87.10;;;;;;4130592;28;20094;-50
2023/07/19 07:14:48;;;;;;;3.95;1.55;;;21.10;87.40;;;;;;4129750;28;20077;-52
2023/07/19 07:16:52;;;;;;;4.68;1.60;;;21.10;87.90;;;;;;4127578;28;20532;-53
2023/07/19 07:18:54;;;;;;;4.28;1.70;;;21.10;88.10;;;;;;4130928;28;20070;-53
2023/07/19 07:20:56;;;;;;;4.82;1.52;;;21.20;87.40;;;;;;4129772;28;20047;-53
2023/07/19 07:22:59;;;;;;;4.35;1.60;;;21.40;87.00;;;;;;4130692;28;20056;-52
2023/07/19 07:25:02;;;;;;;5.43;1.77;;;21.60;86.50;;;;;;4129985;28;20166;-52
2023/07/19 07:27:05;;;;;;;4.70;1.77;;;21.80;86.00;;;;;;4130024;28;20046;-53
2023/07/19 07:29:07;;;;;;;2.08;1.27;;;21.90;85.30;;;;;;4130808;28;20078;-52
2023/07/19 07:31:11;;;;;;;4.43;1.40;;;22.00;85.40;;;;;;4130415;28;20085;-52
2023/07/19 07:33:13;;;;;;;5.63;1.45;;;22.10;85.20;;;;;;4133885;28;20512;-52
2023/07/19 07:35:16;;;;;;;7.25;1.70;;;22.30;85.60;;;;;;4132876;28;20060;-53
2023/07/19 07:37:18;;;;;;;6.78;1.63;;;22.30;84.80;;;;;;4133107;28;20515;-53
2023/07/19 07:39:21;;;;;;;6.15;1.35;;;22.30;84.40;;;;;;4117585;28;20039;-51
2023/07/19 07:41:24;;;;;;;4.00;1.30;;;22.40;84.40;;;;;;4124910;28;20121;-53
2023/07/19 07:43:26;;;;;;;7.07;1.83;;;22.50;84.40;;;;;;4132474;28;20049;-53
2023/07/19 07:45:28;;;;;;;5.15;1.50;;;22.50;83.30;;;;;;4132770;28;20077;-53
2023/07/19 07:47:30;;;;;;;5.60;1.83;;;22.60;83.50;;;;;;4133284;28;20049;-53
2023/07/19 07:49:32;;;;;;;3.75;1.40;;;22.80;82.40;;;;;;4133637;28;20051;-54
2023/07/19 07:51:35;;;;;;;4.28;1.27;;;22.90;82.50;;;;;;4132991;28;20149;-53
2023/07/19 07:53:37;;;;;;;4.65;1.48;;;23.10;82.20;;;;;;4133550;28;20150;-52
2023/07/19 07:55:41;;;;;;;3.70;1.70;;;23.20;81.00;;;;;;4132723;28;20824;-53
2023/07/19 07:57:43;;;;;;;7.60;1.67;;;23.20;80.20;;;;;;4133137;28;20387;-53
2023/07/19 07:59:45;;;;;;;7.63;1.67;;;23.20;80.00;;;;;;4133279;28;20050;-53
2023/07/19 08:01:47;;;;;;;3.38;1.70;;;23.10;80.00;;;;;;4133109;28;20066;-52
2023/07/19 08:03:49;;;;;;;5.10;1.55;;;23.20;79.90;;;;;;4133366;28;20070;-52
2023/07/19 08:05:53;;;;;;;6.82;1.60;;;23.30;79.90;;;;;;4132114;28;20069;-52
2023/07/19 08:07:55;;;;;;;5.28;1.60;;;23.20;80.10;;;;;;4133298;28;20512;-50
2023/07/19 08:09:57;;;;;;;5.50;1.40;;;23.20;79.50;;;;;;4132252;28;20066;-53
2023/07/19 08:12:00;;;;;;;5.43;1.38;;;23.10;79.40;;;;;;4133157;28;20070;-52
2023/07/19 08:14:02;;;;;;;5.38;1.52;;;23.30;79.20;;;;;;4132217;28;20070;-52
2023/07/19 08:16:06;;;;;;;4.40;1.30;;;23.40;79.10;;;;;;4131331;28;20042;-52
2023/07/19 08:18:08;;;;;;;3.25;1.40;;;23.40;78.60;;;;;;4115454;28;20631;-53
2023/07/19 08:20:11;;;;;;;9.48;2.20;;;23.60;79.00;;;;;;4132545;28;20425;-53
2023/07/19 08:22:24;;;;;;;6.65;1.60;;;23.50;78.40;;;;;;4132958;28;20061;-53
2023/07/19 08:24:27;;;;;;;5.15;2.10;;;23.30;79.30;;;;;;4127000;28;20049;-53
2023/07/19 08:26:29;;;;;;;4.35;1.70;;;23.30;79.80;;;;;;4099547;28;20135;-52
2023/07/19 08:28:32;;;;;;;5.75;1.77;;;23.40;79.30;;;;;;4128519;28;20046;-53
2023/07/19 08:30:34;;;;;;;6.57;1.73;;;23.50;79.00;;;;;;4132262;28;20094;-50
2023/07/19 08:32:36;;;;;;;6.05;1.80;;;23.40;78.30;;;;;;4132678;28;20477;-53
2023/07/19 08:34:38;;;;;;;5.72;1.48;;;23.30;78.50;;;;;;4120750;28;20038;-54
2023/07/19 08:36:40;;;;;;;5.75;1.67;;;23.40;78.70;;;;;;4128446;28;20088;-50
2023/07/19 08:38:42;;;;;;;9.30;2.10;;;23.40;79.00;;;;;;4127611;28;20153;-50
2023/07/19 08:40:52;;;;;;;6.43;1.50;;;23.60;78.80;;;;;;4127831;28;20082;-51
2023/07/19 08:42:54;;;;;;;3.08;1.30;;;23.40;78.50;;;;;;4131338;28;20062;-50
2023/07/19 08:44:58;;;;;;;7.43;2.10;;;23.40;78.40;;;;;;4130801;28;20390;-50
2023/07/19 08:47:03;;;;;;;4.35;1.65;;;23.30;77.80;;;;;;4131364;28;20052;-53
2023/07/19 08:49:06;;;;;;;8.13;2.03;;;23.30;77.40;;;;;;4126656;28;20042;-53
2023/07/19 08:51:09;;;;;;;8.98;1.67;;;23.20;77.90;;;;;;4130241;28;20054;-53
2023/07/19 08:53:11;;;;;;;3.35;1.60;;;23.30;77.70;;;;;;4131839;28;20057;-52
2023/07/19 08:55:13;;;;;;;4.97;1.77;;;23.30;77.10;;;;;;4129929;28;20048;-53
2023/07/19 08:57:16;;;;;;;9.23;1.90;;;23.20;77.10;;;;;;4129009;28;20039;-53
2023/07/19 08:59:18;;;;;;;7.45;1.85;;;23.30;76.60;;;;;;4124635;28;20082;-53
2023/07/19 09:01:21;;;;;;;5.63;1.40;;;23.10;76.50;;;;;;4120699;28;20118;-53
2023/07/19 09:03:24;;;;;;;10.27;1.60;;;23.40;76.70;;;;;;4129040;28;20057;-53
2023/07/19 09:05:30;;;;;;;10.45;1.80;;;23.40;75.50;;;;;;4129828;28;20382;-53
2023/07/19 09:07:33;;;;;;;7.00;1.60;;;23.40;75.50;;;;;;4130402;28;20137;-53
2023/07/19 09:09:35;;;;;;;7.30;2.05;;;23.20;74.70;;;;;;4130679;28;20061;-51
2023/07/19 09:11:42;;;;;;;6.38;1.70;;;23.00;75.20;;;;;;4131127;28;20069;-50
2023/07/19 09:13:52;;;;;;;5.57;1.50;;;23.20;75.70;;;;;;4129949;28;20053;-52
2023/07/19 09:15:54;;;;;;;36.60;3.28;;;23.70;75.20;;;;;;4128499;28;20454;-51
2023/07/19 09:17:58;;;;;;;5.60;1.75;;;24.10;74.70;;;;;;4130588;28;20409;-50
2023/07/19 09:20:00;;;;;;;4.32;1.42;;;24.30;73.60;;;;;;4128154;28;20054;-52
2023/07/19 09:22:04;;;;;;;5.97;1.58;;;23.90;73.90;;;;;;4130678;28;20049;-51
2023/07/19 09:24:07;;;;;;;4.57;2.13;;;23.80;73.50;;;;;;4113308;28;20046;-53
2023/07/19 09:26:09;;;;;;;3.47;1.63;;;23.70;73.60;;;;;;4128396;28;20543;-52
2023/07/19 09:28:11;;;;;;;5.00;1.65;;;23.70;73.60;;;;;;4130819;28;20078;-53
2023/07/19 09:30:14;;;;;;;5.85;1.52;;;23.70;73.60;;;;;;4130107;28;20089;-52
2023/07/19 09:32:16;;;;;;;4.82;1.60;;;23.40;73.10;;;;;;4127887;28;20038;-53
2023/07/19 09:34:21;;;;;;;7.70;2.22;;;23.50;73.70;;;;;;4129020;28;20050;-53
2023/07/19 09:36:28;;;;;;;;;;;23.40;73.30;;;;;;4128261;28;20486;-53
2023/07/19 09:38:30;;;;;;;7.40;2.25;;;23.20;73.10;;;;;;4130464;28;19976;-51
2023/07/19 09:40:32;;;;;;;3.08;1.90;;;23.20;73.80;;;;;;4128625;28;20045;-53
2023/07/19 09:42:37;;;;;;;9.90;2.20;;;23.60;73.80;;;;;;4130563;28;20057;-53
2023/07/19 09:44:40;;;;;;;3.63;2.03;;;23.80;73.70;;;;;;4129017;28;20050;-53
2023/07/19 09:46:46;;;;;;;10.10;2.33;;;23.90;72.70;;;;;;4116853;28;20077;-52
2023/07/19 09:48:48;;;;;;;4.47;1.70;;;24.10;72.90;;;;;;4130800;28;20085;-53
2023/07/19 09:51:01;;;;;;;6.40;1.63;;;24.20;72.70;;;;;;4112927;28;20417;-53
2023/07/19 09:53:04;;;;;;;6.18;1.83;;;24.30;72.80;;;;;;4132737;28;20049;-61
2023/07/19 09:55:07;;;;;;;11.75;1.63;;;24.10;72.60;;;;;;4132274;28;20073;-55
2023/07/19 09:57:10;;;;;;;4.35;1.80;;;24.30;72.30;;;;;;4130777;28;20077;-51
2023/07/19 09:59:17;;;;;;;3.28;1.58;;;24.30;72.80;;;;;;4130834;28;20141;-53
2023/07/19 10:01:19;;;;;;;3.85;1.50;;;24.20;73.10;;;;;;4128813;28;20069;-53
2023/07/19 10:03:21;;;;;;;5.60;1.60;;;24.10;72.80;;;;;;4130676;28;20596;-53
2023/07/19 10:05:31;;;;;;;5.20;1.98;;;24.30;72.30;;;;;;4129307;28;20470;-51
2023/07/19 10:07:35;;;;;;;8.75;1.73;;;24.40;73.00;;;;;;4127309;28;20054;-51
2023/07/19 10:10:01;;;;;;;4.07;1.58;;;24.60;72.80;;;;;;4131263;28;20050;-53
2023/07/19 10:12:07;;;;;;;5.97;1.95;;;24.70;71.70;;;;;;4130180;28;20137;-51
2023/07/19 10:14:09;;;;;;;3.92;1.77;;;24.90;71.80;;;;;;4129971;28;20589;-50
2023/07/19 10:16:36;;;;;;;4.63;1.75;;;25.10;71.10;;;;;;4129001;28;20046;-53
2023/07/19 10:18:39;;;;;;;9.57;1.75;;;25.20;70.70;;;;;;4130341;28;20054;-52
2023/07/19 10:20:44;;;;;;;8.65;2.53;;;25.40;70.10;;;;;;4130054;28;20045;-50
2023/07/19 10:22:55;;;;;;;12.18;2.60;;;25.40;70.30;;;;;;4130293;28;20050;-52
2023/07/19 10:25:04;;;;;;;9.13;2.10;;;25.40;70.30;;;;;;4113208;28;20058;-51
2023/07/19 10:27:07;;;;;;;7.65;1.92;;;25.20;69.70;;;;;;4105313;28;20051;-53
2023/07/19 10:29:16;;;;;;;5.15;2.25;;;25.40;70.20;;;;;;4130034;28;20054;-53
2023/07/19 10:31:18;;;;;;;5.13;2.00;;;25.20;70.00;;;;;;4129652;28;20468;-52
2023/07/19 10:33:31;;;;;;;3.40;1.75;;;25.20;70.10;;;;;;4127437;28;20053;-52
2023/07/19 10:35:34;;;;;;;7.63;2.35;;;25.20;70.30;;;;;;4129240;28;20057;-52
2023/07/19 10:37:36;;;;;;;5.13;2.20;;;25.20;70.40;;;;;;4130024;28;20046;-53
2023/07/19 10:39:39;;;;;;;4.22;1.90;;;24.90;70.30;;;;;;4130154;28;20134;-49